sensor_id;sensor_type;location;lat;lon;timestamp;P1;durP1;ratioP1;P2;durP2;ratioP2
76752;SDS011;65687;51.308;16.916;2023-03-01T00:00:05;39.70;;;18.10;;
76752;SDS011;65687;51.308;16.916;2023-03-01T00:05:27;38.90;;;19.90;;
76752;SDS011;65687;51.308;16.916;2023-03-01T00:10:28;39.20;;;18.30;;
76752;SDS011;65687;51.308;16.916;2023-03-01T00:15:29;37.40;;;17.00;;
76752;SDS011;65687;51.308;16.916;2023-03-01T00:20:30;33.00;;;16.70;;
76752;SDS011;65687;51.308;16.916;2023-03-01T00:25:31;44.80;;;18.90;;
76752;SDS011;65687;51.308;16.916;2023-03-01T00:30:32;37.90;;;17.10;;
76752;SDS011;65687;51.308;16.916;2023-03-01T00:35:33;34.50;;;15.60;;
76752;SDS011;65687;51.308;16.916;2023-03-01T00:40:34;46.50;;;21.80;;
76752;SDS011;65687;51.308;16.916;2023-03-01T00:45:36;41.70;;;19.80;;
76752;SDS011;65687;51.308;16.916;2023-03-01T00:50:37;48.80;;;21.80;;
76752;SDS011;65687;51.308;16.916;2023-03-01T00:55:38;41.50;;;20.80;;
76752;SDS011;65687;51.308;16.916;2023-03-01T01:00:38;35.80;;;18.50;;
76752;SDS011;65687;51.308;16.916;2023-03-01T01:05:39;40.80;;;20.70;;
76752;SDS011;65687;51.308;16.916;2023-03-01T01:10:40;35.80;;;18.00;;
76752;SDS011;65687;51.308;16.916;2023-03-01T01:15:44;38.40;;;18.10;;
76752;SDS011;65687;51.308;16.916;2023-03-01T01:20:45;40.20;;;18.10;;
76752;SDS011;65687;51.308;16.916;2023-03-01T01:25:46;41.50;;;18.00;;
76752;SDS011;65687;51.308;16.916;2023-03-01T01:30:47;32.50;;;16.90;;
76752;SDS011;65687;51.308;16.916;2023-03-01T01:35:47;35.80;;;17.70;;
76752;SDS011;65687;51.308;16.916;2023-03-01T01:40:49;35.10;;;16.20;;
76752;SDS011;65687;51.308;16.916;2023-03-01T01:45:51;28.30;;;15.20;;
76752;SDS011;65687;51.308;16.916;2023-03-01T01:50:57;31.60;;;16.00;;
76752;SDS011;65687;51.308;16.916;2023-03-01T01:56:01;38.50;;;16.00;;
76752;SDS011;65687;51.308;16.916;2023-03-01T02:01:04;30.30;;;16.90;;
76752;SDS011;65687;51.308;16.916;2023-03-01T02:11:12;28.70;;;14.50;;
76752;SDS011;65687;51.308;16.916;2023-03-01T02:16:15;25.70;;;10.70;;
76752;SDS011;65687;51.308;16.916;2023-03-01T02:21:24;23.50;;;11.30;;
76752;SDS011;65687;51.308;16.916;2023-03-01T02:26:35;42.70;;;19.50;;
76752;SDS011;65687;51.308;16.916;2023-03-01T02:31:47;33.60;;;13.90;;
76752;SDS011;65687;51.308;16.916;2023-03-01T02:36:52;26.90;;;13.90;;
76752;SDS011;65687;51.308;16.916;2023-03-01T02:41:57;28.30;;;13.90;;
76752;SDS011;65687;51.308;16.916;2023-03-01T02:47:00;30.40;;;13.50;;
76752;SDS011;65687;51.308;16.916;2023-03-01T02:52:08;28.60;;;15.50;;
76752;SDS011;65687;51.308;16.916;2023-03-01T02:57:23;25.00;;;12.10;;
76752;SDS011;65687;51.308;16.916;2023-03-01T03:02:25;26.50;;;13.60;;
76752;SDS011;65687;51.308;16.916;2023-03-01T03:07:37;32.50;;;17.20;;
76752;SDS011;65687;51.308;16.916;2023-03-01T03:12:40;34.40;;;14.80;;
76752;SDS011;65687;51.308;16.916;2023-03-01T03:17:41;28.80;;;15.10;;
76752;SDS011;65687;51.308;16.916;2023-03-01T03:22:43;23.30;;;14.70;;
76752;SDS011;65687;51.308;16.916;2023-03-01T03:27:44;32.30;;;14.90;;
76752;SDS011;65687;51.308;16.916;2023-03-01T03:32:47;31.20;;;13.40;;
76752;SDS011;65687;51.308;16.916;2023-03-01T03:37:52;25.70;;;13.60;;
76752;SDS011;65687;51.308;16.916;2023-03-01T03:43:03;28.60;;;14.40;;
76752;SDS011;65687;51.308;16.916;2023-03-01T03:48:06;22.50;;;10.70;;
76752;SDS011;65687;51.308;16.916;2023-03-01T03:53:10;29.30;;;14.80;;
76752;SDS011;65687;51.308;16.916;2023-03-01T03:58:12;30.90;;;15.40;;
76752;SDS011;65687;51.308;16.916;2023-03-01T04:03:14;21.50;;;12.50;;
76752;SDS011;65687;51.308;16.916;2023-03-01T04:08:17;24.70;;;12.40;;
76752;SDS011;65687;51.308;16.916;2023-03-01T04:13:21;25.50;;;13.30;;
76752;SDS011;65687;51.308;16.916;2023-03-01T04:18:23;24.70;;;13.50;;
76752;SDS011;65687;51.308;16.916;2023-03-01T04:23:25;27.10;;;12.80;;
76752;SDS011;65687;51.308;16.916;2023-03-01T04:33:28;29.30;;;12.80;;
76752;SDS011;65687;51.308;16.916;2023-03-01T04:38:29;26.90;;;13.40;;
76752;SDS011;65687;51.308;16.916;2023-03-01T04:43:30;27.40;;;13.70;;
76752;SDS011;65687;51.308;16.916;2023-03-01T04:48:31;23.40;;;11.70;;
76752;SDS011;65687;51.308;16.916;2023-03-01T04:53:32;23.40;;;12.20;;
76752;SDS011;65687;51.308;16.916;2023-03-01T04:58:33;27.10;;;13.00;;
76752;SDS011;65687;51.308;16.916;2023-03-01T05:03:35;23.10;;;11.90;;
76752;SDS011;65687;51.308;16.916;2023-03-01T05:08:36;27.10;;;13.10;;
76752;SDS011;65687;51.308;16.916;2023-03-01T05:13:41;31.20;;;12.40;;
76752;SDS011;65687;51.308;16.916;2023-03-01T05:18:42;31.60;;;14.10;;
76752;SDS011;65687;51.308;16.916;2023-03-01T05:23:44;32.00;;;13.00;;
76752;SDS011;65687;51.308;16.916;2023-03-01T05:28:47;34.40;;;15.70;;
76752;SDS011;65687;51.308;16.916;2023-03-01T05:33:48;31.20;;;14.80;;
76752;SDS011;65687;51.308;16.916;2023-03-01T05:38:49;22.10;;;13.10;;
76752;SDS011;65687;51.308;16.916;2023-03-01T05:43:50;29.70;;;13.40;;
76752;SDS011;65687;51.308;16.916;2023-03-01T05:48:50;28.30;;;12.90;;
76752;SDS011;65687;51.308;16.916;2023-03-01T05:53:51;23.10;;;12.30;;
76752;SDS011;65687;51.308;16.916;2023-03-01T05:58:52;26.40;;;14.40;;
76752;SDS011;65687;51.308;16.916;2023-03-01T06:03:53;23.60;;;11.90;;
76752;SDS011;65687;51.308;16.916;2023-03-01T06:08:54;26.40;;;12.20;;
76752;SDS011;65687;51.308;16.916;2023-03-01T06:13:55;35.80;;;17.00;;
76752;SDS011;65687;51.308;16.916;2023-03-01T06:18:56;27.60;;;14.00;;
76752;SDS011;65687;51.308;16.916;2023-03-01T06:23:57;27.70;;;15.30;;
76752;SDS011;65687;51.308;16.916;2023-03-01T06:28:57;25.00;;;13.90;;
76752;SDS011;65687;51.308;16.916;2023-03-01T06:33:58;30.60;;;15.80;;
76752;SDS011;65687;51.308;16.916;2023-03-01T06:38:59;28.20;;;14.50;;
76752;SDS011;65687;51.308;16.916;2023-03-01T06:44:00;31.60;;;13.40;;
76752;SDS011;65687;51.308;16.916;2023-03-01T06:49:01;30.20;;;15.50;;
76752;SDS011;65687;51.308;16.916;2023-03-01T06:54:05;47.20;;;24.30;;
76752;SDS011;65687;51.308;16.916;2023-03-01T06:59:05;74.30;;;33.30;;
76752;SDS011;65687;51.308;16.916;2023-03-01T07:04:06;51.40;;;26.10;;
76752;SDS011;65687;51.308;16.916;2023-03-01T07:09:07;41.50;;;21.90;;
76752;SDS011;65687;51.308;16.916;2023-03-01T07:14:08;25.80;;;11.60;;
76752;SDS011;65687;51.308;16.916;2023-03-01T07:19:09;40.50;;;20.80;;
76752;SDS011;65687;51.308;16.916;2023-03-01T07:24:10;44.90;;;19.40;;
76752;SDS011;65687;51.308;16.916;2023-03-01T07:29:11;38.20;;;17.90;;
76752;SDS011;65687;51.308;16.916;2023-03-01T07:34:12;30.80;;;16.10;;
76752;SDS011;65687;51.308;16.916;2023-03-01T07:39:13;22.60;;;11.70;;
76752;SDS011;65687;51.308;16.916;2023-03-01T07:44:14;22.20;;;9.70;;
76752;SDS011;65687;51.308;16.916;2023-03-01T07:49:16;24.60;;;9.90;;
76752;SDS011;65687;51.308;16.916;2023-03-01T07:54:17;34.30;;;16.90;;
76752;SDS011;65687;51.308;16.916;2023-03-01T07:59:18;50.60;;;23.50;;
76752;SDS011;65687;51.308;16.916;2023-03-01T08:04:19;34.40;;;16.60;;
76752;SDS011;65687;51.308;16.916;2023-03-01T08:09:20;30.70;;;15.10;;
76752;SDS011;65687;51.308;16.916;2023-03-01T08:14:21;28.70;;;15.30;;
76752;SDS011;65687;51.308;16.916;2023-03-01T08:19:22;29.50;;;14.90;;
76752;SDS011;65687;51.308;16.916;2023-03-01T08:24:23;23.00;;;11.70;;
76752;SDS011;65687;51.308;16.916;2023-03-01T08:29:24;24.60;;;12.50;;
76752;SDS011;65687;51.308;16.916;2023-03-01T08:34:25;25.00;;;14.00;;
76752;SDS011;65687;51.308;16.916;2023-03-01T08:39:26;24.90;;;13.30;;
76752;SDS011;65687;51.308;16.916;2023-03-01T08:44:27;20.50;;;10.20;;
76752;SDS011;65687;51.308;16.916;2023-03-01T08:49:28;26.00;;;13.20;;
76752;SDS011;65687;51.308;16.916;2023-03-01T08:54:29;23.70;;;12.80;;
76752;SDS011;65687;51.308;16.916;2023-03-01T08:59:30;27.10;;;12.70;;
76752;SDS011;65687;51.308;16.916;2023-03-01T09:04:36;25.80;;;12.80;;
76752;SDS011;65687;51.308;16.916;2023-03-01T09:09:40;31.40;;;16.30;;
76752;SDS011;65687;51.308;16.916;2023-03-01T09:14:41;23.40;;;13.70;;
76752;SDS011;65687;51.308;16.916;2023-03-01T09:19:42;26.70;;;15.70;;
76752;SDS011;65687;51.308;16.916;2023-03-01T09:24:43;15.20;;;8.10;;
76752;SDS011;65687;51.308;16.916;2023-03-01T09:29:44;13.60;;;8.10;;
76752;SDS011;65687;51.308;16.916;2023-03-01T09:34:45;22.20;;;11.60;;
76752;SDS011;65687;51.308;16.916;2023-03-01T09:40:04;17.00;;;10.60;;
76752;SDS011;65687;51.308;16.916;2023-03-01T09:45:10;23.60;;;13.00;;
76752;SDS011;65687;51.308;16.916;2023-03-01T09:50:17;34.80;;;16.90;;
76752;SDS011;65687;51.308;16.916;2023-03-01T09:55:25;19.40;;;10.90;;
76752;SDS011;65687;51.308;16.916;2023-03-01T10:05:56;16.80;;;9.50;;
76752;SDS011;65687;51.308;16.916;2023-03-01T10:10:59;20.00;;;10.00;;
76752;SDS011;65687;51.308;16.916;2023-03-01T10:16:05;16.10;;;8.40;;
76752;SDS011;65687;51.308;16.916;2023-03-01T10:21:14;19.40;;;10.00;;
76752;SDS011;65687;51.308;16.916;2023-03-01T10:27:01;16.90;;;8.40;;
76752;SDS011;65687;51.308;16.916;2023-03-01T10:31:59;17.70;;;9.90;;
76752;SDS011;65687;51.308;16.916;2023-03-01T10:37:17;17.40;;;10.50;;
76752;SDS011;65687;51.308;16.916;2023-03-01T10:42:29;11.00;;;6.90;;
76752;SDS011;65687;51.308;16.916;2023-03-01T10:47:32;20.60;;;11.90;;
76752;SDS011;65687;51.308;16.916;2023-03-01T10:52:34;19.50;;;11.10;;
76752;SDS011;65687;51.308;16.916;2023-03-01T10:57:37;20.30;;;11.00;;
76752;SDS011;65687;51.308;16.916;2023-03-01T11:02:41;16.90;;;11.30;;
76752;SDS011;65687;51.308;16.916;2023-03-01T11:08:15;21.10;;;11.10;;
76752;SDS011;65687;51.308;16.916;2023-03-01T11:13:15;19.40;;;11.30;;
76752;SDS011;65687;51.308;16.916;2023-03-01T11:18:22;16.40;;;11.00;;
76752;SDS011;65687;51.308;16.916;2023-03-01T11:23:23;15.70;;;9.90;;
76752;SDS011;65687;51.308;16.916;2023-03-01T11:28:26;16.30;;;9.00;;
76752;SDS011;65687;51.308;16.916;2023-03-01T11:39:21;19.30;;;11.90;;
76752;SDS011;65687;51.308;16.916;2023-03-01T11:44:30;14.30;;;9.40;;
76752;SDS011;65687;51.308;16.916;2023-03-01T11:49:41;16.00;;;10.30;;
76752;SDS011;65687;51.308;16.916;2023-03-01T12:11:19;16.30;;;9.50;;
76752;SDS011;65687;51.308;16.916;2023-03-01T12:43:47;15.20;;;9.00;;
76752;SDS011;65687;51.308;16.916;2023-03-01T12:54:27;15.80;;;8.40;;
76752;SDS011;65687;51.308;16.916;2023-03-01T13:20:26;15.50;;;8.80;;
76752;SDS011;65687;51.308;16.916;2023-03-01T13:26:18;13.80;;;8.30;;
76752;SDS011;65687;51.308;16.916;2023-03-01T13:46:44;12.40;;;7.80;;
76752;SDS011;65687;51.308;16.916;2023-03-01T13:51:46;14.50;;;8.00;;
76752;SDS011;65687;51.308;16.916;2023-03-01T13:56:48;13.60;;;7.40;;
76752;SDS011;65687;51.308;16.916;2023-03-01T14:02:32;15.80;;;8.90;;
76752;SDS011;65687;51.308;16.916;2023-03-01T14:07:18;12.50;;;7.30;;
76752;SDS011;65687;51.308;16.916;2023-03-01T14:22:59;13.90;;;8.50;;
76752;SDS011;65687;51.308;16.916;2023-03-01T14:33:22;15.10;;;8.30;;
76752;SDS011;65687;51.308;16.916;2023-03-01T14:38:29;12.70;;;7.30;;
76752;SDS011;65687;51.308;16.916;2023-03-01T14:43:31;13.70;;;8.70;;
76752;SDS011;65687;51.308;16.916;2023-03-01T14:48:33;15.80;;;8.60;;
76752;SDS011;65687;51.308;16.916;2023-03-01T14:53:34;13.20;;;8.00;;
76752;SDS011;65687;51.308;16.916;2023-03-01T14:58:35;16.40;;;8.70;;
76752;SDS011;65687;51.308;16.916;2023-03-01T15:03:37;14.40;;;8.80;;
76752;SDS011;65687;51.308;16.916;2023-03-01T15:08:44;13.40;;;8.40;;
76752;SDS011;65687;51.308;16.916;2023-03-01T15:13:48;13.00;;;7.60;;
76752;SDS011;65687;51.308;16.916;2023-03-01T15:19:15;13.00;;;7.60;;
76752;SDS011;65687;51.308;16.916;2023-03-01T15:24:20;17.60;;;10.00;;
76752;SDS011;65687;51.308;16.916;2023-03-01T15:29:25;16.30;;;9.30;;
76752;SDS011;65687;51.308;16.916;2023-03-01T15:34:34;12.60;;;7.70;;
76752;SDS011;65687;51.308;16.916;2023-03-01T15:39:52;15.20;;;7.70;;
76752;SDS011;65687;51.308;16.916;2023-03-01T15:45:11;14.20;;;8.10;;
76752;SDS011;65687;51.308;16.916;2023-03-01T15:50:26;13.30;;;8.00;;
76752;SDS011;65687;51.308;16.916;2023-03-01T15:55:30;13.70;;;7.60;;
76752;SDS011;65687;51.308;16.916;2023-03-01T16:00:33;16.80;;;8.70;;
76752;SDS011;65687;51.308;16.916;2023-03-01T16:05:34;12.00;;;7.10;;
76752;SDS011;65687;51.308;16.916;2023-03-01T16:10:36;13.00;;;7.90;;
76752;SDS011;65687;51.308;16.916;2023-03-01T16:15:38;15.20;;;7.50;;
76752;SDS011;65687;51.308;16.916;2023-03-01T16:20:40;14.40;;;7.70;;
76752;SDS011;65687;51.308;16.916;2023-03-01T16:25:41;12.70;;;7.20;;
76752;SDS011;65687;51.308;16.916;2023-03-01T16:30:45;12.60;;;7.30;;
76752;SDS011;65687;51.308;16.916;2023-03-01T16:35:51;13.60;;;7.20;;
76752;SDS011;65687;51.308;16.916;2023-03-01T16:40:52;14.50;;;8.10;;
76752;SDS011;65687;51.308;16.916;2023-03-01T16:45:53;13.30;;;8.50;;
76752;SDS011;65687;51.308;16.916;2023-03-01T16:51:00;15.20;;;7.60;;
76752;SDS011;65687;51.308;16.916;2023-03-01T16:56:02;21.00;;;11.00;;
76752;SDS011;65687;51.308;16.916;2023-03-01T17:01:06;18.90;;;9.70;;
76752;SDS011;65687;51.308;16.916;2023-03-01T17:06:13;17.70;;;9.10;;
76752;SDS011;65687;51.308;16.916;2023-03-01T17:11:16;15.50;;;8.80;;
76752;SDS011;65687;51.308;16.916;2023-03-01T17:16:19;13.90;;;8.40;;
76752;SDS011;65687;51.308;16.916;2023-03-01T17:21:21;16.80;;;7.60;;
76752;SDS011;65687;51.308;16.916;2023-03-01T17:26:22;15.60;;;8.60;;
76752;SDS011;65687;51.308;16.916;2023-03-01T17:31:23;18.60;;;9.10;;
76752;SDS011;65687;51.308;16.916;2023-03-01T17:36:24;19.20;;;8.80;;
76752;SDS011;65687;51.308;16.916;2023-03-01T17:41:25;15.90;;;8.10;;
76752;SDS011;65687;51.308;16.916;2023-03-01T17:46:27;14.20;;;7.10;;
76752;SDS011;65687;51.308;16.916;2023-03-01T17:51:28;15.80;;;7.20;;
76752;SDS011;65687;51.308;16.916;2023-03-01T17:56:29;16.40;;;7.30;;
76752;SDS011;65687;51.308;16.916;2023-03-01T18:01:31;20.70;;;11.20;;
76752;SDS011;65687;51.308;16.916;2023-03-01T18:11:36;25.20;;;11.30;;
76752;SDS011;65687;51.308;16.916;2023-03-01T18:16:37;17.50;;;8.60;;
76752;SDS011;65687;51.308;16.916;2023-03-01T18:21:39;19.10;;;10.80;;
76752;SDS011;65687;51.308;16.916;2023-03-01T18:26:40;21.60;;;11.40;;
76752;SDS011;65687;51.308;16.916;2023-03-01T18:31:41;21.90;;;11.60;;
76752;SDS011;65687;51.308;16.916;2023-03-01T18:36:42;24.30;;;10.30;;
76752;SDS011;65687;51.308;16.916;2023-03-01T18:41:43;17.40;;;9.10;;
76752;SDS011;65687;51.308;16.916;2023-03-01T18:46:43;16.60;;;8.30;;
76752;SDS011;65687;51.308;16.916;2023-03-01T18:51:45;16.90;;;8.40;;
76752;SDS011;65687;51.308;16.916;2023-03-01T18:56:46;14.20;;;7.20;;
76752;SDS011;65687;51.308;16.916;2023-03-01T19:01:47;15.40;;;7.80;;
76752;SDS011;65687;51.308;16.916;2023-03-01T19:06:48;15.40;;;8.20;;
76752;SDS011;65687;51.308;16.916;2023-03-01T19:11:49;18.40;;;8.90;;
76752;SDS011;65687;51.308;16.916;2023-03-01T19:16:50;19.70;;;8.70;;
76752;SDS011;65687;51.308;16.916;2023-03-01T19:21:51;16.50;;;8.10;;
76752;SDS011;65687;51.308;16.916;2023-03-01T19:26:54;16.10;;;7.90;;
76752;SDS011;65687;51.308;16.916;2023-03-01T19:31:56;23.50;;;11.00;;
76752;SDS011;65687;51.308;16.916;2023-03-01T19:36:57;19.60;;;9.60;;
76752;SDS011;65687;51.308;16.916;2023-03-01T19:41:58;19.70;;;9.90;;
76752;SDS011;65687;51.308;16.916;2023-03-01T19:46:58;17.70;;;10.20;;
76752;SDS011;65687;51.308;16.916;2023-03-01T19:51:59;21.70;;;10.30;;
76752;SDS011;65687;51.308;16.916;2023-03-01T19:57:00;19.30;;;10.10;;
76752;SDS011;65687;51.308;16.916;2023-03-01T20:02:01;15.80;;;8.50;;
76752;SDS011;65687;51.308;16.916;2023-03-01T20:07:03;20.00;;;9.40;;
76752;SDS011;65687;51.308;16.916;2023-03-01T20:12:04;20.50;;;9.90;;
76752;SDS011;65687;51.308;16.916;2023-03-01T20:17:05;17.30;;;9.80;;
76752;SDS011;65687;51.308;16.916;2023-03-01T20:22:06;21.10;;;9.10;;
76752;SDS011;65687;51.308;16.916;2023-03-01T20:27:07;16.20;;;8.30;;
76752;SDS011;65687;51.308;16.916;2023-03-01T20:32:08;20.70;;;10.90;;
76752;SDS011;65687;51.308;16.916;2023-03-01T20:37:09;24.10;;;12.50;;
76752;SDS011;65687;51.308;16.916;2023-03-01T20:42:10;27.20;;;14.30;;
76752;SDS011;65687;51.308;16.916;2023-03-01T20:47:11;31.60;;;15.40;;
76752;SDS011;65687;51.308;16.916;2023-03-01T20:52:13;24.40;;;13.70;;
76752;SDS011;65687;51.308;16.916;2023-03-01T20:57:13;22.20;;;12.70;;
76752;SDS011;65687;51.308;16.916;2023-03-01T21:02:14;23.70;;;12.80;;
76752;SDS011;65687;51.308;16.916;2023-03-01T21:07:16;22.70;;;11.70;;
76752;SDS011;65687;51.308;16.916;2023-03-01T21:12:17;19.00;;;10.50;;
76752;SDS011;65687;51.308;16.916;2023-03-01T21:17:18;23.90;;;10.80;;
76752;SDS011;65687;51.308;16.916;2023-03-01T21:22:19;21.40;;;10.60;;
76752;SDS011;65687;51.308;16.916;2023-03-01T21:27:19;18.50;;;9.20;;
76752;SDS011;65687;51.308;16.916;2023-03-01T21:32:20;15.40;;;9.20;;
76752;SDS011;65687;51.308;16.916;2023-03-01T21:37:21;21.50;;;8.20;;
76752;SDS011;65687;51.308;16.916;2023-03-01T21:42:28;16.10;;;7.70;;
76752;SDS011;65687;51.308;16.916;2023-03-01T21:47:31;15.30;;;7.10;;
76752;SDS011;65687;51.308;16.916;2023-03-01T21:52:33;17.90;;;8.20;;
76752;SDS011;65687;51.308;16.916;2023-03-01T21:57:35;25.10;;;12.70;;
76752;SDS011;65687;51.308;16.916;2023-03-01T22:02:43;23.20;;;11.70;;
76752;SDS011;65687;51.308;16.916;2023-03-01T22:07:43;21.70;;;11.80;;
76752;SDS011;65687;51.308;16.916;2023-03-01T22:12:44;25.70;;;11.80;;
76752;SDS011;65687;51.308;16.916;2023-03-01T22:17:45;28.60;;;13.40;;
76752;SDS011;65687;51.308;16.916;2023-03-01T22:22:46;28.00;;;15.20;;
76752;SDS011;65687;51.308;16.916;2023-03-01T22:27:47;28.70;;;15.80;;
76752;SDS011;65687;51.308;16.916;2023-03-01T22:32:48;23.80;;;11.50;;
76752;SDS011;65687;51.308;16.916;2023-03-01T22:37:49;31.60;;;15.60;;
76752;SDS011;65687;51.308;16.916;2023-03-01T22:42:49;28.50;;;14.60;;
76752;SDS011;65687;51.308;16.916;2023-03-01T22:47:51;27.90;;;12.30;;
76752;SDS011;65687;51.308;16.916;2023-03-01T22:52:52;38.50;;;18.00;;
76752;SDS011;65687;51.308;16.916;2023-03-01T22:57:52;55.80;;;22.30;;
76752;SDS011;65687;51.308;16.916;2023-03-01T23:02:53;42.80;;;21.00;;
76752;SDS011;65687;51.308;16.916;2023-03-01T23:07:54;43.90;;;19.80;;
76752;SDS011;65687;51.308;16.916;2023-03-01T23:12:55;48.00;;;20.50;;
76752;SDS011;65687;51.308;16.916;2023-03-01T23:17:56;47.20;;;20.80;;
76752;SDS011;65687;51.308;16.916;2023-03-01T23:22:57;33.60;;;15.10;;
76752;SDS011;65687;51.308;16.916;2023-03-01T23:28:01;33.60;;;13.20;;
76752;SDS011;65687;51.308;16.916;2023-03-01T23:33:03;27.90;;;13.40;;
76752;SDS011;65687;51.308;16.916;2023-03-01T23:38:03;27.90;;;12.10;;
76752;SDS011;65687;51.308;16.916;2023-03-01T23:43:04;29.20;;;13.30;;
76752;SDS011;65687;51.308;16.916;2023-03-01T23:48:05;33.60;;;15.80;;
76752;SDS011;65687;51.308;16.916;2023-03-01T23:53:15;29.10;;;15.70;;
76752;SDS011;65687;51.308;16.916;2023-03-01T23:58:18;26.10;;;13.90;;
